sensor_id;sensor_type;location;lat;lon;timestamp;P1;durP1;ratioP1;P2;durP2;ratioP2
56043;SDS011;41912;51.022;3.664;2022-12-29T00:01:35;2.78;;;0.95;;
56043;SDS011;41912;51.022;3.664;2022-12-29T00:04:22;3.30;;;0.93;;
56043;SDS011;41912;51.022;3.664;2022-12-29T00:06:48;2.65;;;0.95;;
56043;SDS011;41912;51.022;3.664;2022-12-29T00:09:15;1.02;;;0.60;;
56043;SDS011;41912;51.022;3.664;2022-12-29T00:11:41;4.00;;;1.00;;
56043;SDS011;41912;51.022;3.664;2022-12-29T00:14:11;4.53;;;1.38;;
56043;SDS011;41912;51.022;3.664;2022-12-29T00:16:56;2.30;;;0.55;;
56043;SDS011;41912;51.022;3.664;2022-12-29T00:19:22;1.73;;;0.75;;
56043;SDS011;41912;51.022;3.664;2022-12-29T00:22:08;1.70;;;0.98;;
56043;SDS011;41912;51.022;3.664;2022-12-29T00:24:54;2.35;;;0.70;;
56043;SDS011;41912;51.022;3.664;2022-12-29T00:27:38;1.23;;;0.50;;
56043;SDS011;41912;51.022;3.664;2022-12-29T00:30:23;2.10;;;0.55;;
56043;SDS011;41912;51.022;3.664;2022-12-29T00:38:37;4.70;;;0.70;;
56043;SDS011;41912;51.022;3.664;2022-12-29T00:41:28;1.95;;;0.68;;
56043;SDS011;41912;51.022;3.664;2022-12-29T00:44:24;4.85;;;0.80;;
56043;SDS011;41912;51.022;3.664;2022-12-29T00:46:50;2.15;;;0.65;;
56043;SDS011;41912;51.022;3.664;2022-12-29T00:49:18;3.00;;;0.70;;
56043;SDS011;41912;51.022;3.664;2022-12-29T00:51:56;1.38;;;0.63;;
56043;SDS011;41912;51.022;3.664;2022-12-29T00:54:24;6.45;;;1.73;;
56043;SDS011;41912;51.022;3.664;2022-12-29T00:56:50;2.63;;;0.70;;
56043;SDS011;41912;51.022;3.664;2022-12-29T00:59:17;7.03;;;1.35;;
56043;SDS011;41912;51.022;3.664;2022-12-29T01:01:43;3.88;;;1.40;;
56043;SDS011;41912;51.022;3.664;2022-12-29T01:04:09;2.28;;;0.70;;
56043;SDS011;41912;51.022;3.664;2022-12-29T01:06:37;7.28;;;1.58;;
56043;SDS011;41912;51.022;3.664;2022-12-29T01:09:06;7.93;;;1.10;;
56043;SDS011;41912;51.022;3.664;2022-12-29T01:11:51;6.10;;;0.88;;
56043;SDS011;41912;51.022;3.664;2022-12-29T01:14:29;3.67;;;1.27;;
56043;SDS011;41912;51.022;3.664;2022-12-29T01:16:55;4.28;;;0.63;;
56043;SDS011;41912;51.022;3.664;2022-12-29T01:19:30;5.90;;;0.85;;
56043;SDS011;41912;51.022;3.664;2022-12-29T01:21:58;3.83;;;1.30;;
56043;SDS011;41912;51.022;3.664;2022-12-29T01:24:39;3.80;;;1.23;;
56043;SDS011;41912;51.022;3.664;2022-12-29T01:27:05;4.90;;;1.08;;
56043;SDS011;41912;51.022;3.664;2022-12-29T01:29:30;5.55;;;1.00;;
56043;SDS011;41912;51.022;3.664;2022-12-29T01:31:56;7.03;;;1.00;;
56043;SDS011;41912;51.022;3.664;2022-12-29T01:34:22;3.83;;;1.00;;
56043;SDS011;41912;51.022;3.664;2022-12-29T01:36:53;8.40;;;0.95;;
56043;SDS011;41912;51.022;3.664;2022-12-29T01:39:19;5.55;;;1.00;;
56043;SDS011;41912;51.022;3.664;2022-12-29T01:41:44;9.02;;;1.10;;
56043;SDS011;41912;51.022;3.664;2022-12-29T01:47:06;6.32;;;0.90;;
56043;SDS011;41912;51.022;3.664;2022-12-29T01:49:33;4.53;;;1.15;;
56043;SDS011;41912;51.022;3.664;2022-12-29T01:52:00;5.07;;;0.95;;
56043;SDS011;41912;51.022;3.664;2022-12-29T01:54:33;5.90;;;0.93;;
56043;SDS011;41912;51.022;3.664;2022-12-29T01:57:05;7.18;;;1.25;;
56043;SDS011;41912;51.022;3.664;2022-12-29T01:59:39;4.75;;;0.82;;
56043;SDS011;41912;51.022;3.664;2022-12-29T02:02:14;6.50;;;1.20;;
56043;SDS011;41912;51.022;3.664;2022-12-29T02:04:41;7.25;;;2.58;;
56043;SDS011;41912;51.022;3.664;2022-12-29T02:07:13;8.90;;;0.80;;
56043;SDS011;41912;51.022;3.664;2022-12-29T02:12:08;6.05;;;1.10;;
56043;SDS011;41912;51.022;3.664;2022-12-29T02:14:35;6.90;;;1.88;;
56043;SDS011;41912;51.022;3.664;2022-12-29T02:20:13;6.70;;;1.15;;
56043;SDS011;41912;51.022;3.664;2022-12-29T02:28:55;3.55;;;0.98;;
56043;SDS011;41912;51.022;3.664;2022-12-29T02:31:36;4.93;;;0.90;;
56043;SDS011;41912;51.022;3.664;2022-12-29T02:34:24;5.25;;;0.93;;
56043;SDS011;41912;51.022;3.664;2022-12-29T02:39:56;5.88;;;1.45;;
56043;SDS011;41912;51.022;3.664;2022-12-29T02:42:36;5.53;;;1.40;;
56043;SDS011;41912;51.022;3.664;2022-12-29T02:52:52;4.87;;;0.93;;
56043;SDS011;41912;51.022;3.664;2022-12-29T02:55:23;6.28;;;1.13;;
56043;SDS011;41912;51.022;3.664;2022-12-29T02:57:48;12.15;;;1.35;;
56043;SDS011;41912;51.022;3.664;2022-12-29T03:00:31;6.18;;;1.00;;
56043;SDS011;41912;51.022;3.664;2022-12-29T03:03:04;5.18;;;1.42;;
56043;SDS011;41912;51.022;3.664;2022-12-29T03:11:17;9.60;;;1.10;;
56043;SDS011;41912;51.022;3.664;2022-12-29T03:14:05;10.27;;;1.40;;
56043;SDS011;41912;51.022;3.664;2022-12-29T03:16:59;7.93;;;1.45;;
56043;SDS011;41912;51.022;3.664;2022-12-29T03:19:31;8.70;;;1.65;;
56043;SDS011;41912;51.022;3.664;2022-12-29T03:22:07;6.78;;;1.17;;
56043;SDS011;41912;51.022;3.664;2022-12-29T03:24:53;9.13;;;1.42;;
56043;SDS011;41912;51.022;3.664;2022-12-29T03:27:24;5.57;;;1.27;;
56043;SDS011;41912;51.022;3.664;2022-12-29T03:29:57;10.85;;;1.15;;
56043;SDS011;41912;51.022;3.664;2022-12-29T03:32:28;6.75;;;1.10;;
56043;SDS011;41912;51.022;3.664;2022-12-29T03:34:58;6.03;;;1.50;;
56043;SDS011;41912;51.022;3.664;2022-12-29T03:37:26;10.63;;;1.92;;
56043;SDS011;41912;51.022;3.664;2022-12-29T03:39:59;8.75;;;1.25;;
56043;SDS011;41912;51.022;3.664;2022-12-29T03:42:26;7.70;;;1.33;;
56043;SDS011;41912;51.022;3.664;2022-12-29T03:44:56;5.40;;;1.05;;
56043;SDS011;41912;51.022;3.664;2022-12-29T03:47:22;15.30;;;1.90;;
56043;SDS011;41912;51.022;3.664;2022-12-29T03:49:48;8.57;;;1.73;;
56043;SDS011;41912;51.022;3.664;2022-12-29T03:52:15;6.68;;;1.48;;
56043;SDS011;41912;51.022;3.664;2022-12-29T03:54:41;5.32;;;1.35;;
56043;SDS011;41912;51.022;3.664;2022-12-29T03:57:09;5.40;;;1.42;;
56043;SDS011;41912;51.022;3.664;2022-12-29T03:59:35;7.68;;;1.77;;
56043;SDS011;41912;51.022;3.664;2022-12-29T04:02:01;8.75;;;1.50;;
56043;SDS011;41912;51.022;3.664;2022-12-29T04:04:27;12.32;;;1.30;;
56043;SDS011;41912;51.022;3.664;2022-12-29T04:06:53;13.30;;;1.90;;
56043;SDS011;41912;51.022;3.664;2022-12-29T04:09:18;11.18;;;1.58;;
56043;SDS011;41912;51.022;3.664;2022-12-29T04:11:44;8.98;;;1.77;;
56043;SDS011;41912;51.022;3.664;2022-12-29T04:14:10;8.55;;;1.83;;
56043;SDS011;41912;51.022;3.664;2022-12-29T04:16:35;13.60;;;1.52;;
56043;SDS011;41912;51.022;3.664;2022-12-29T04:19:03;7.30;;;1.27;;
56043;SDS011;41912;51.022;3.664;2022-12-29T04:21:30;9.23;;;1.40;;
56043;SDS011;41912;51.022;3.664;2022-12-29T04:23:55;11.27;;;1.55;;
56043;SDS011;41912;51.022;3.664;2022-12-29T04:26:21;13.38;;;1.73;;
56043;SDS011;41912;51.022;3.664;2022-12-29T04:28:46;11.77;;;1.45;;
56043;SDS011;41912;51.022;3.664;2022-12-29T04:31:12;12.60;;;2.45;;
56043;SDS011;41912;51.022;3.664;2022-12-29T04:33:38;12.70;;;1.42;;
56043;SDS011;41912;51.022;3.664;2022-12-29T04:36:03;6.53;;;1.67;;
56043;SDS011;41912;51.022;3.664;2022-12-29T04:38:29;8.48;;;1.27;;
56043;SDS011;41912;51.022;3.664;2022-12-29T04:40:55;6.60;;;1.23;;
56043;SDS011;41912;51.022;3.664;2022-12-29T04:43:25;8.10;;;1.17;;
56043;SDS011;41912;51.022;3.664;2022-12-29T04:45:50;9.55;;;1.70;;
56043;SDS011;41912;51.022;3.664;2022-12-29T04:48:16;9.70;;;1.58;;
56043;SDS011;41912;51.022;3.664;2022-12-29T04:50:42;9.88;;;1.60;;
56043;SDS011;41912;51.022;3.664;2022-12-29T04:53:08;14.85;;;2.15;;
56043;SDS011;41912;51.022;3.664;2022-12-29T04:55:34;9.60;;;1.23;;
56043;SDS011;41912;51.022;3.664;2022-12-29T04:58:00;10.93;;;1.60;;
56043;SDS011;41912;51.022;3.664;2022-12-29T05:00:25;8.30;;;1.40;;
56043;SDS011;41912;51.022;3.664;2022-12-29T05:02:51;13.00;;;1.77;;
56043;SDS011;41912;51.022;3.664;2022-12-29T05:05:17;9.48;;;1.38;;
56043;SDS011;41912;51.022;3.664;2022-12-29T05:07:43;6.30;;;0.80;;
56043;SDS011;41912;51.022;3.664;2022-12-29T05:10:08;4.85;;;1.15;;
56043;SDS011;41912;51.022;3.664;2022-12-29T05:12:35;7.55;;;1.45;;
56043;SDS011;41912;51.022;3.664;2022-12-29T05:15:02;9.68;;;1.10;;
56043;SDS011;41912;51.022;3.664;2022-12-29T05:17:29;8.45;;;1.05;;
56043;SDS011;41912;51.022;3.664;2022-12-29T05:19:55;5.53;;;1.33;;
56043;SDS011;41912;51.022;3.664;2022-12-29T05:22:21;10.75;;;1.33;;
56043;SDS011;41912;51.022;3.664;2022-12-29T05:24:47;7.78;;;1.20;;
56043;SDS011;41912;51.022;3.664;2022-12-29T05:27:12;6.50;;;1.00;;
56043;SDS011;41912;51.022;3.664;2022-12-29T05:29:38;6.22;;;1.10;;
56043;SDS011;41912;51.022;3.664;2022-12-29T05:32:04;8.80;;;1.45;;
56043;SDS011;41912;51.022;3.664;2022-12-29T05:34:30;10.65;;;1.50;;
56043;SDS011;41912;51.022;3.664;2022-12-29T05:36:55;9.75;;;1.35;;
56043;SDS011;41912;51.022;3.664;2022-12-29T05:39:21;8.05;;;1.23;;
56043;SDS011;41912;51.022;3.664;2022-12-29T05:41:47;7.28;;;1.30;;
56043;SDS011;41912;51.022;3.664;2022-12-29T05:44:12;12.05;;;2.10;;
56043;SDS011;41912;51.022;3.664;2022-12-29T05:46:38;9.50;;;1.20;;
56043;SDS011;41912;51.022;3.664;2022-12-29T05:49:04;10.15;;;1.20;;
56043;SDS011;41912;51.022;3.664;2022-12-29T05:51:30;7.78;;;1.50;;
56043;SDS011;41912;51.022;3.664;2022-12-29T05:53:56;8.23;;;1.85;;
56043;SDS011;41912;51.022;3.664;2022-12-29T05:56:21;4.13;;;1.05;;
56043;SDS011;41912;51.022;3.664;2022-12-29T05:58:47;17.48;;;3.15;;
56043;SDS011;41912;51.022;3.664;2022-12-29T06:01:13;13.73;;;2.22;;
56043;SDS011;41912;51.022;3.664;2022-12-29T06:03:38;11.60;;;1.52;;
56043;SDS011;41912;51.022;3.664;2022-12-29T06:06:04;14.80;;;2.38;;
56043;SDS011;41912;51.022;3.664;2022-12-29T06:08:30;6.95;;;1.48;;
56043;SDS011;41912;51.022;3.664;2022-12-29T06:10:55;8.40;;;1.52;;
56043;SDS011;41912;51.022;3.664;2022-12-29T06:13:21;11.95;;;2.65;;
56043;SDS011;41912;51.022;3.664;2022-12-29T06:15:50;13.52;;;1.77;;
56043;SDS011;41912;51.022;3.664;2022-12-29T06:18:16;14.15;;;1.70;;
56043;SDS011;41912;51.022;3.664;2022-12-29T06:20:41;9.40;;;1.77;;
56043;SDS011;41912;51.022;3.664;2022-12-29T06:23:07;12.50;;;2.45;;
56043;SDS011;41912;51.022;3.664;2022-12-29T06:25:33;11.95;;;2.63;;
56043;SDS011;41912;51.022;3.664;2022-12-29T06:28:00;10.27;;;1.65;;
56043;SDS011;41912;51.022;3.664;2022-12-29T06:30:27;14.45;;;2.55;;
56043;SDS011;41912;51.022;3.664;2022-12-29T06:32:52;16.23;;;1.98;;
56043;SDS011;41912;51.022;3.664;2022-12-29T06:35:19;8.10;;;1.75;;
56043;SDS011;41912;51.022;3.664;2022-12-29T06:37:46;11.98;;;1.88;;
56043;SDS011;41912;51.022;3.664;2022-12-29T06:40:12;12.80;;;2.25;;
56043;SDS011;41912;51.022;3.664;2022-12-29T06:42:37;11.20;;;1.75;;
56043;SDS011;41912;51.022;3.664;2022-12-29T06:45:03;17.10;;;2.50;;
56043;SDS011;41912;51.022;3.664;2022-12-29T06:47:29;17.60;;;3.25;;
56043;SDS011;41912;51.022;3.664;2022-12-29T06:49:55;15.43;;;2.80;;
56043;SDS011;41912;51.022;3.664;2022-12-29T06:52:20;12.52;;;2.28;;
56043;SDS011;41912;51.022;3.664;2022-12-29T06:54:48;16.58;;;2.00;;
56043;SDS011;41912;51.022;3.664;2022-12-29T06:57:14;12.80;;;2.17;;
56043;SDS011;41912;51.022;3.664;2022-12-29T06:59:40;12.00;;;1.90;;
56043;SDS011;41912;51.022;3.664;2022-12-29T07:02:05;10.35;;;1.92;;
56043;SDS011;41912;51.022;3.664;2022-12-29T07:04:31;13.18;;;1.73;;
56043;SDS011;41912;51.022;3.664;2022-12-29T07:06:57;14.13;;;3.47;;
56043;SDS011;41912;51.022;3.664;2022-12-29T07:09:23;12.32;;;2.00;;
56043;SDS011;41912;51.022;3.664;2022-12-29T07:11:48;17.33;;;2.22;;
56043;SDS011;41912;51.022;3.664;2022-12-29T07:14:14;15.40;;;1.83;;
56043;SDS011;41912;51.022;3.664;2022-12-29T07:16:45;10.70;;;2.78;;
56043;SDS011;41912;51.022;3.664;2022-12-29T07:19:11;15.05;;;2.10;;
56043;SDS011;41912;51.022;3.664;2022-12-29T07:21:36;20.10;;;2.65;;
56043;SDS011;41912;51.022;3.664;2022-12-29T07:24:05;12.48;;;2.50;;
56043;SDS011;41912;51.022;3.664;2022-12-29T07:26:33;9.35;;;1.98;;
56043;SDS011;41912;51.022;3.664;2022-12-29T07:29:02;12.85;;;1.98;;
56043;SDS011;41912;51.022;3.664;2022-12-29T07:31:31;14.52;;;2.03;;
56043;SDS011;41912;51.022;3.664;2022-12-29T07:33:57;19.05;;;4.30;;
56043;SDS011;41912;51.022;3.664;2022-12-29T07:36:23;17.00;;;2.13;;
56043;SDS011;41912;51.022;3.664;2022-12-29T07:38:48;14.60;;;3.08;;
56043;SDS011;41912;51.022;3.664;2022-12-29T07:41:14;12.60;;;1.85;;
56043;SDS011;41912;51.022;3.664;2022-12-29T07:43:39;16.23;;;3.28;;
56043;SDS011;41912;51.022;3.664;2022-12-29T07:46:05;10.18;;;2.25;;
56043;SDS011;41912;51.022;3.664;2022-12-29T07:48:31;13.30;;;2.35;;
56043;SDS011;41912;51.022;3.664;2022-12-29T07:50:58;9.40;;;1.88;;
56043;SDS011;41912;51.022;3.664;2022-12-29T07:55:49;15.77;;;2.60;;
56043;SDS011;41912;51.022;3.664;2022-12-29T07:58:15;15.57;;;2.40;;
56043;SDS011;41912;51.022;3.664;2022-12-29T08:00:40;14.52;;;2.42;;
56043;SDS011;41912;51.022;3.664;2022-12-29T08:05:32;12.88;;;2.22;;
56043;SDS011;41912;51.022;3.664;2022-12-29T08:10:23;18.45;;;2.63;;
56043;SDS011;41912;51.022;3.664;2022-12-29T08:12:49;10.55;;;2.10;;
56043;SDS011;41912;51.022;3.664;2022-12-29T08:15:15;14.15;;;2.10;;
56043;SDS011;41912;51.022;3.664;2022-12-29T08:17:46;13.30;;;2.15;;
56043;SDS011;41912;51.022;3.664;2022-12-29T08:20:12;12.00;;;1.83;;
56043;SDS011;41912;51.022;3.664;2022-12-29T08:22:38;15.82;;;1.90;;
56043;SDS011;41912;51.022;3.664;2022-12-29T08:25:04;11.38;;;2.13;;
56043;SDS011;41912;51.022;3.664;2022-12-29T08:27:30;13.80;;;2.60;;
56043;SDS011;41912;51.022;3.664;2022-12-29T08:29:59;16.98;;;2.35;;
56043;SDS011;41912;51.022;3.664;2022-12-29T08:32:25;13.73;;;3.10;;
56043;SDS011;41912;51.022;3.664;2022-12-29T08:34:53;10.88;;;2.60;;
56043;SDS011;41912;51.022;3.664;2022-12-29T08:37:19;17.77;;;2.33;;
56043;SDS011;41912;51.022;3.664;2022-12-29T08:39:44;14.75;;;2.50;;
56043;SDS011;41912;51.022;3.664;2022-12-29T08:42:10;12.25;;;1.52;;
56043;SDS011;41912;51.022;3.664;2022-12-29T08:44:36;13.27;;;2.40;;
56043;SDS011;41912;51.022;3.664;2022-12-29T08:47:01;13.38;;;2.65;;
56043;SDS011;41912;51.022;3.664;2022-12-29T08:49:33;19.98;;;3.40;;
56043;SDS011;41912;51.022;3.664;2022-12-29T08:51:59;11.73;;;2.00;;
56043;SDS011;41912;51.022;3.664;2022-12-29T08:54:24;12.48;;;2.28;;
56043;SDS011;41912;51.022;3.664;2022-12-29T08:56:50;19.30;;;3.60;;
56043;SDS011;41912;51.022;3.664;2022-12-29T08:59:16;18.98;;;2.53;;
56043;SDS011;41912;51.022;3.664;2022-12-29T09:01:41;17.23;;;2.95;;
56043;SDS011;41912;51.022;3.664;2022-12-29T09:04:07;12.30;;;2.22;;
56043;SDS011;41912;51.022;3.664;2022-12-29T09:06:33;12.45;;;3.03;;
56043;SDS011;41912;51.022;3.664;2022-12-29T09:08:59;15.48;;;2.72;;
56043;SDS011;41912;51.022;3.664;2022-12-29T09:11:25;14.25;;;2.40;;
56043;SDS011;41912;51.022;3.664;2022-12-29T09:13:51;13.38;;;2.55;;
56043;SDS011;41912;51.022;3.664;2022-12-29T09:16:18;17.67;;;2.60;;
56043;SDS011;41912;51.022;3.664;2022-12-29T09:18:45;20.23;;;3.05;;
56043;SDS011;41912;51.022;3.664;2022-12-29T09:21:11;18.33;;;2.50;;
56043;SDS011;41912;51.022;3.664;2022-12-29T09:23:38;22.48;;;3.47;;
56043;SDS011;41912;51.022;3.664;2022-12-29T09:26:04;18.35;;;3.10;;
56043;SDS011;41912;51.022;3.664;2022-12-29T09:28:30;24.70;;;3.30;;
56043;SDS011;41912;51.022;3.664;2022-12-29T09:30:56;17.35;;;1.90;;
56043;SDS011;41912;51.022;3.664;2022-12-29T09:33:23;28.30;;;3.95;;
56043;SDS011;41912;51.022;3.664;2022-12-29T09:35:53;19.70;;;3.90;;
56043;SDS011;41912;51.022;3.664;2022-12-29T09:46:29;15.25;;;3.08;;
56043;SDS011;41912;51.022;3.664;2022-12-29T09:51:50;23.10;;;2.95;;
56043;SDS011;41912;51.022;3.664;2022-12-29T09:57:00;14.55;;;2.58;;
56043;SDS011;41912;51.022;3.664;2022-12-29T09:59:38;17.80;;;2.63;;
56043;SDS011;41912;51.022;3.664;2022-12-29T10:04:50;17.08;;;3.10;;
56043;SDS011;41912;51.022;3.664;2022-12-29T10:10:03;18.95;;;3.55;;
56043;SDS011;41912;51.022;3.664;2022-12-29T10:24:21;19.05;;;3.75;;
56043;SDS011;41912;51.022;3.664;2022-12-29T10:26:52;21.13;;;2.90;;
56043;SDS011;41912;51.022;3.664;2022-12-29T10:29:21;12.05;;;2.30;;
56043;SDS011;41912;51.022;3.664;2022-12-29T10:32:29;18.70;;;2.63;;
56043;SDS011;41912;51.022;3.664;2022-12-29T10:35:18;21.15;;;3.38;;
56043;SDS011;41912;51.022;3.664;2022-12-29T10:40:45;12.45;;;2.35;;
56043;SDS011;41912;51.022;3.664;2022-12-29T10:45:44;12.07;;;1.98;;
56043;SDS011;41912;51.022;3.664;2022-12-29T10:48:15;11.18;;;1.92;;
56043;SDS011;41912;51.022;3.664;2022-12-29T10:51:27;11.68;;;1.45;;
56043;SDS011;41912;51.022;3.664;2022-12-29T10:56:56;12.98;;;1.98;;
56043;SDS011;41912;51.022;3.664;2022-12-29T11:00:07;9.20;;;1.80;;
56043;SDS011;41912;51.022;3.664;2022-12-29T11:08:25;9.07;;;2.10;;
56043;SDS011;41912;51.022;3.664;2022-12-29T11:11:02;11.57;;;1.90;;
56043;SDS011;41912;51.022;3.664;2022-12-29T11:13:30;12.68;;;1.88;;
56043;SDS011;41912;51.022;3.664;2022-12-29T11:16:00;13.50;;;2.67;;
56043;SDS011;41912;51.022;3.664;2022-12-29T11:18:33;14.13;;;1.88;;
56043;SDS011;41912;51.022;3.664;2022-12-29T11:21:03;18.20;;;2.65;;
56043;SDS011;41912;51.022;3.664;2022-12-29T11:23:43;12.40;;;1.92;;
56043;SDS011;41912;51.022;3.664;2022-12-29T11:29:20;10.15;;;1.77;;
56043;SDS011;41912;51.022;3.664;2022-12-29T11:31:52;16.42;;;2.03;;
56043;SDS011;41912;51.022;3.664;2022-12-29T11:37:01;10.55;;;2.08;;
56043;SDS011;41912;51.022;3.664;2022-12-29T11:42:22;13.20;;;2.03;;
56043;SDS011;41912;51.022;3.664;2022-12-29T11:44:57;21.90;;;3.47;;
56043;SDS011;41912;51.022;3.664;2022-12-29T11:47:31;17.00;;;2.92;;
56043;SDS011;41912;51.022;3.664;2022-12-29T11:50:07;19.65;;;3.38;;
56043;SDS011;41912;51.022;3.664;2022-12-29T11:52:34;24.25;;;4.95;;
56043;SDS011;41912;51.022;3.664;2022-12-29T11:55:04;15.73;;;3.22;;
56043;SDS011;41912;51.022;3.664;2022-12-29T11:57:41;21.38;;;2.80;;
56043;SDS011;41912;51.022;3.664;2022-12-29T12:00:14;16.52;;;2.38;;
56043;SDS011;41912;51.022;3.664;2022-12-29T12:05:41;13.48;;;2.60;;
56043;SDS011;41912;51.022;3.664;2022-12-29T12:08:33;20.98;;;2.47;;
56043;SDS011;41912;51.022;3.664;2022-12-29T12:13:38;20.60;;;2.75;;
56043;SDS011;41912;51.022;3.664;2022-12-29T12:16:07;14.83;;;2.77;;
56043;SDS011;41912;51.022;3.664;2022-12-29T12:26:39;17.00;;;4.03;;
56043;SDS011;41912;51.022;3.664;2022-12-29T12:29:14;10.88;;;1.65;;
56043;SDS011;41912;51.022;3.664;2022-12-29T12:31:46;9.93;;;2.53;;
56043;SDS011;41912;51.022;3.664;2022-12-29T12:34:57;11.50;;;2.33;;
56043;SDS011;41912;51.022;3.664;2022-12-29T12:37:19;13.13;;;2.03;;
56043;SDS011;41912;51.022;3.664;2022-12-29T12:54:03;9.30;;;1.80;;
56043;SDS011;41912;51.022;3.664;2022-12-29T13:00:02;18.10;;;1.88;;
56043;SDS011;41912;51.022;3.664;2022-12-29T13:11:10;12.57;;;1.83;;
56043;SDS011;41912;51.022;3.664;2022-12-29T13:19:36;6.53;;;1.50;;
56043;SDS011;41912;51.022;3.664;2022-12-29T13:22:28;11.43;;;1.35;;
56043;SDS011;41912;51.022;3.664;2022-12-29T13:33:41;4.13;;;1.00;;
56043;SDS011;41912;51.022;3.664;2022-12-29T13:39:28;8.93;;;1.40;;
56043;SDS011;41912;51.022;3.664;2022-12-29T13:42:00;3.60;;;0.93;;
56043;SDS011;41912;51.022;3.664;2022-12-29T13:44:31;4.93;;;1.17;;
56043;SDS011;41912;51.022;3.664;2022-12-29T13:47:26;3.95;;;0.90;;
56043;SDS011;41912;51.022;3.664;2022-12-29T13:49:52;8.73;;;1.05;;
56043;SDS011;41912;51.022;3.664;2022-12-29T13:58:01;9.43;;;2.33;;
56043;SDS011;41912;51.022;3.664;2022-12-29T14:00:29;5.20;;;1.10;;
56043;SDS011;41912;51.022;3.664;2022-12-29T14:06:20;6.00;;;1.33;;
56043;SDS011;41912;51.022;3.664;2022-12-29T14:08:57;7.78;;;1.48;;
56043;SDS011;41912;51.022;3.664;2022-12-29T14:11:30;5.15;;;0.80;;
56043;SDS011;41912;51.022;3.664;2022-12-29T14:14:22;8.10;;;1.15;;
56043;SDS011;41912;51.022;3.664;2022-12-29T14:16:50;7.90;;;1.52;;
56043;SDS011;41912;51.022;3.664;2022-12-29T14:19:26;7.90;;;1.38;;
56043;SDS011;41912;51.022;3.664;2022-12-29T14:21:55;5.72;;;1.10;;
56043;SDS011;41912;51.022;3.664;2022-12-29T14:32:50;4.25;;;1.27;;
56043;SDS011;41912;51.022;3.664;2022-12-29T14:34:54;7.20;;;0.88;;
56043;SDS011;41912;51.022;3.664;2022-12-29T14:40:04;3.97;;;1.00;;
56043;SDS011;41912;51.022;3.664;2022-12-29T14:42:31;6.97;;;1.48;;
56043;SDS011;41912;51.022;3.664;2022-12-29T14:45:02;6.53;;;0.95;;
56043;SDS011;41912;51.022;3.664;2022-12-29T14:47:44;9.85;;;1.50;;
56043;SDS011;41912;51.022;3.664;2022-12-29T14:50:16;5.38;;;1.45;;
56043;SDS011;41912;51.022;3.664;2022-12-29T14:53:04;7.65;;;1.52;;
56043;SDS011;41912;51.022;3.664;2022-12-29T14:55:47;14.77;;;1.42;;
56043;SDS011;41912;51.022;3.664;2022-12-29T14:58:26;8.43;;;1.27;;
56043;SDS011;41912;51.022;3.664;2022-12-29T15:08:28;26.63;;;2.55;;
56043;SDS011;41912;51.022;3.664;2022-12-29T15:11:09;7.35;;;1.73;;
56043;SDS011;41912;51.022;3.664;2022-12-29T15:13:40;9.70;;;2.33;;
56043;SDS011;41912;51.022;3.664;2022-12-29T15:18:56;18.48;;;3.53;;
56043;SDS011;41912;51.022;3.664;2022-12-29T15:23:48;9.18;;;1.88;;
56043;SDS011;41912;51.022;3.664;2022-12-29T15:26:13;9.27;;;1.65;;
56043;SDS011;41912;51.022;3.664;2022-12-29T15:28:46;12.13;;;2.80;;
56043;SDS011;41912;51.022;3.664;2022-12-29T15:31:16;10.82;;;2.72;;
56043;SDS011;41912;51.022;3.664;2022-12-29T15:33:43;11.57;;;1.90;;
56043;SDS011;41912;51.022;3.664;2022-12-29T15:36:36;10.15;;;1.95;;
56043;SDS011;41912;51.022;3.664;2022-12-29T15:46:34;18.15;;;3.13;;
56043;SDS011;41912;51.022;3.664;2022-12-29T15:49:07;11.25;;;1.90;;
56043;SDS011;41912;51.022;3.664;2022-12-29T15:51:49;9.88;;;2.30;;
56043;SDS011;41912;51.022;3.664;2022-12-29T15:54:16;14.50;;;3.47;;
56043;SDS011;41912;51.022;3.664;2022-12-29T15:56:44;16.55;;;3.28;;
56043;SDS011;41912;51.022;3.664;2022-12-29T16:01:57;12.70;;;3.22;;
56043;SDS011;41912;51.022;3.664;2022-12-29T16:04:28;9.63;;;2.15;;
56043;SDS011;41912;51.022;3.664;2022-12-29T16:09:32;13.65;;;3.15;;
56043;SDS011;41912;51.022;3.664;2022-12-29T16:14:42;18.58;;;2.97;;
56043;SDS011;41912;51.022;3.664;2022-12-29T16:17:13;23.42;;;3.70;;
56043;SDS011;41912;51.022;3.664;2022-12-29T16:20:31;16.52;;;2.53;;
56043;SDS011;41912;51.022;3.664;2022-12-29T16:22:42;15.73;;;2.38;;
56043;SDS011;41912;51.022;3.664;2022-12-29T16:25:33;14.07;;;2.65;;
56043;SDS011;41912;51.022;3.664;2022-12-29T16:28:02;19.13;;;2.88;;
56043;SDS011;41912;51.022;3.664;2022-12-29T16:30:47;13.85;;;2.42;;
56043;SDS011;41912;51.022;3.664;2022-12-29T16:33:36;19.85;;;2.40;;
56043;SDS011;41912;51.022;3.664;2022-12-29T16:36:24;13.77;;;3.20;;
56043;SDS011;41912;51.022;3.664;2022-12-29T16:39:05;19.88;;;3.00;;
56043;SDS011;41912;51.022;3.664;2022-12-29T16:41:44;17.60;;;3.10;;
56043;SDS011;41912;51.022;3.664;2022-12-29T16:49:39;21.02;;;3.88;;
56043;SDS011;41912;51.022;3.664;2022-12-29T16:52:13;23.70;;;3.22;;
56043;SDS011;41912;51.022;3.664;2022-12-29T16:54:53;19.17;;;3.20;;
56043;SDS011;41912;51.022;3.664;2022-12-29T16:57:25;18.45;;;3.88;;
56043;SDS011;41912;51.022;3.664;2022-12-29T17:00:05;16.95;;;3.30;;
56043;SDS011;41912;51.022;3.664;2022-12-29T17:02:32;18.95;;;3.22;;
56043;SDS011;41912;51.022;3.664;2022-12-29T17:05:11;18.75;;;3.20;;
56043;SDS011;41912;51.022;3.664;2022-12-29T17:07:38;13.57;;;2.92;;
56043;SDS011;41912;51.022;3.664;2022-12-29T17:10:04;16.55;;;3.15;;
56043;SDS011;41912;51.022;3.664;2022-12-29T17:12:30;16.30;;;3.55;;
56043;SDS011;41912;51.022;3.664;2022-12-29T17:15:00;18.13;;;2.95;;
56043;SDS011;41912;51.022;3.664;2022-12-29T17:17:35;17.27;;;3.15;;
56043;SDS011;41912;51.022;3.664;2022-12-29T17:20:19;17.40;;;3.58;;
56043;SDS011;41912;51.022;3.664;2022-12-29T17:22:49;19.13;;;2.85;;
56043;SDS011;41912;51.022;3.664;2022-12-29T17:25:23;21.60;;;3.95;;
56043;SDS011;41912;51.022;3.664;2022-12-29T17:27:59;24.02;;;3.90;;
56043;SDS011;41912;51.022;3.664;2022-12-29T17:30:41;22.60;;;3.05;;
56043;SDS011;41912;51.022;3.664;2022-12-29T17:33:08;16.63;;;2.78;;
56043;SDS011;41912;51.022;3.664;2022-12-29T17:35:38;15.80;;;2.90;;
56043;SDS011;41912;51.022;3.664;2022-12-29T17:42:55;18.67;;;3.38;;
56043;SDS011;41912;51.022;3.664;2022-12-29T17:45:26;12.00;;;2.40;;
56043;SDS011;41912;51.022;3.664;2022-12-29T17:47:53;19.60;;;3.03;;
56043;SDS011;41912;51.022;3.664;2022-12-29T17:50:25;19.65;;;5.00;;
56043;SDS011;41912;51.022;3.664;2022-12-29T17:52:57;22.13;;;3.03;;
56043;SDS011;41912;51.022;3.664;2022-12-29T17:55:38;22.50;;;2.83;;
56043;SDS011;41912;51.022;3.664;2022-12-29T18:03:23;14.25;;;2.42;;
56043;SDS011;41912;51.022;3.664;2022-12-29T18:06:00;15.40;;;2.78;;
56043;SDS011;41912;51.022;3.664;2022-12-29T18:08:28;14.30;;;2.80;;
56043;SDS011;41912;51.022;3.664;2022-12-29T18:11:00;25.55;;;3.72;;
56043;SDS011;41912;51.022;3.664;2022-12-29T18:13:41;14.10;;;3.03;;
56043;SDS011;41912;51.022;3.664;2022-12-29T18:16:07;13.32;;;2.40;;
56043;SDS011;41912;51.022;3.664;2022-12-29T18:18:35;16.67;;;2.90;;
56043;SDS011;41912;51.022;3.664;2022-12-29T18:21:01;12.70;;;1.88;;
56043;SDS011;41912;51.022;3.664;2022-12-29T18:23:27;14.55;;;2.45;;
56043;SDS011;41912;51.022;3.664;2022-12-29T18:28:27;11.68;;;1.70;;
56043;SDS011;41912;51.022;3.664;2022-12-29T18:30:56;11.85;;;2.20;;
56043;SDS011;41912;51.022;3.664;2022-12-29T18:33:24;11.75;;;2.20;;
56043;SDS011;41912;51.022;3.664;2022-12-29T18:35:56;16.00;;;2.35;;
56043;SDS011;41912;51.022;3.664;2022-12-29T18:38:32;12.73;;;2.10;;
56043;SDS011;41912;51.022;3.664;2022-12-29T18:40:58;12.13;;;2.13;;
56043;SDS011;41912;51.022;3.664;2022-12-29T18:43:24;10.98;;;1.98;;